sensor_id;sensor_type;location;lat;lon;timestamp;P1;durP1;ratioP1;P2;durP2;ratioP2
6495;SDS011;3281;47.658;9.166;2023-02-01T00:00:08;9.23;;;2.40;;
6495;SDS011;3281;47.658;9.166;2023-02-01T00:02:36;1.37;;;1.37;;
6495;SDS011;3281;47.658;9.166;2023-02-01T00:05:05;1.20;;;1.20;;
6495;SDS011;3281;47.658;9.166;2023-02-01T00:07:33;2.07;;;1.43;;
6495;SDS011;3281;47.658;9.166;2023-02-01T00:10:00;2.57;;;2.37;;
6495;SDS011;3281;47.658;9.166;2023-02-01T00:12:28;2.50;;;2.40;;
6495;SDS011;3281;47.658;9.166;2023-02-01T00:14:56;1.30;;;1.30;;
6495;SDS011;3281;47.658;9.166;2023-02-01T00:17:23;1.33;;;1.33;;
6495;SDS011;3281;47.658;9.166;2023-02-01T00:19:50;2.73;;;2.53;;
6495;SDS011;3281;47.658;9.166;2023-02-01T00:22:17;4.97;;;4.77;;
6495;SDS011;3281;47.658;9.166;2023-02-01T00:24:44;3.57;;;3.47;;
6495;SDS011;3281;47.658;9.166;2023-02-01T00:27:11;1.63;;;1.63;;
6495;SDS011;3281;47.658;9.166;2023-02-01T00:29:42;3.50;;;3.30;;
6495;SDS011;3281;47.658;9.166;2023-02-01T00:32:10;1.90;;;1.90;;
6495;SDS011;3281;47.658;9.166;2023-02-01T00:34:37;1.47;;;1.37;;
6495;SDS011;3281;47.658;9.166;2023-02-01T00:37:04;2.33;;;2.23;;
6495;SDS011;3281;47.658;9.166;2023-02-01T00:39:30;2.80;;;2.33;;
6495;SDS011;3281;47.658;9.166;2023-02-01T00:41:57;2.47;;;2.40;;
6495;SDS011;3281;47.658;9.166;2023-02-01T00:44:25;2.97;;;2.87;;
6495;SDS011;3281;47.658;9.166;2023-02-01T00:46:52;2.47;;;2.37;;
6495;SDS011;3281;47.658;9.166;2023-02-01T00:49:20;2.67;;;2.47;;
6495;SDS011;3281;47.658;9.166;2023-02-01T00:51:46;1.23;;;1.23;;
6495;SDS011;3281;47.658;9.166;2023-02-01T00:54:13;1.60;;;1.60;;
6495;SDS011;3281;47.658;9.166;2023-02-01T00:56:40;1.90;;;1.80;;
6495;SDS011;3281;47.658;9.166;2023-02-01T00:59:07;1.10;;;1.10;;
6495;SDS011;3281;47.658;9.166;2023-02-01T01:01:36;1.90;;;1.90;;
6495;SDS011;3281;47.658;9.166;2023-02-01T01:04:03;4.03;;;3.93;;
6495;SDS011;3281;47.658;9.166;2023-02-01T01:06:32;3.27;;;2.43;;
6495;SDS011;3281;47.658;9.166;2023-02-01T01:09:00;2.23;;;2.20;;
6495;SDS011;3281;47.658;9.166;2023-02-01T01:11:29;2.33;;;2.20;;
6495;SDS011;3281;47.658;9.166;2023-02-01T01:13:58;3.03;;;2.83;;
6495;SDS011;3281;47.658;9.166;2023-02-01T01:16:26;3.77;;;3.57;;
6495;SDS011;3281;47.658;9.166;2023-02-01T01:18:54;2.00;;;1.93;;
6495;SDS011;3281;47.658;9.166;2023-02-01T01:21:23;4.63;;;2.73;;
6495;SDS011;3281;47.658;9.166;2023-02-01T01:23:51;1.70;;;1.70;;
6495;SDS011;3281;47.658;9.166;2023-02-01T01:26:19;2.20;;;1.77;;
6495;SDS011;3281;47.658;9.166;2023-02-01T01:28:47;1.87;;;1.87;;
6495;SDS011;3281;47.658;9.166;2023-02-01T01:31:15;1.73;;;1.30;;
6495;SDS011;3281;47.658;9.166;2023-02-01T01:33:43;1.67;;;1.67;;
6495;SDS011;3281;47.658;9.166;2023-02-01T01:36:13;1.47;;;1.47;;
6495;SDS011;3281;47.658;9.166;2023-02-01T01:38:40;1.77;;;1.73;;
6495;SDS011;3281;47.658;9.166;2023-02-01T01:41:09;3.13;;;2.93;;
6495;SDS011;3281;47.658;9.166;2023-02-01T01:43:51;2.17;;;2.07;;
6495;SDS011;3281;47.658;9.166;2023-02-01T01:46:20;3.37;;;3.27;;
6495;SDS011;3281;47.658;9.166;2023-02-01T01:48:49;2.23;;;2.10;;
6495;SDS011;3281;47.658;9.166;2023-02-01T01:51:20;0.77;;;0.77;;
6495;SDS011;3281;47.658;9.166;2023-02-01T01:53:50;1.60;;;1.50;;
6495;SDS011;3281;47.658;9.166;2023-02-01T01:56:23;2.10;;;2.10;;
6495;SDS011;3281;47.658;9.166;2023-02-01T01:58:51;1.97;;;1.97;;
6495;SDS011;3281;47.658;9.166;2023-02-01T02:01:19;2.10;;;1.90;;
6495;SDS011;3281;47.658;9.166;2023-02-01T02:03:46;2.93;;;2.83;;
6495;SDS011;3281;47.658;9.166;2023-02-01T02:06:15;4.87;;;2.57;;
6495;SDS011;3281;47.658;9.166;2023-02-01T02:08:50;1.80;;;1.80;;
6495;SDS011;3281;47.658;9.166;2023-02-01T02:11:17;3.03;;;2.87;;
6495;SDS011;3281;47.658;9.166;2023-02-01T02:13:46;0.87;;;0.87;;
6495;SDS011;3281;47.658;9.166;2023-02-01T02:16:21;3.20;;;3.03;;
6495;SDS011;3281;47.658;9.166;2023-02-01T02:19:01;3.70;;;3.50;;
6495;SDS011;3281;47.658;9.166;2023-02-01T02:22:04;2.43;;;2.30;;
6495;SDS011;3281;47.658;9.166;2023-02-01T02:24:51;0.97;;;0.97;;
6495;SDS011;3281;47.658;9.166;2023-02-01T02:27:35;1.27;;;1.27;;
6495;SDS011;3281;47.658;9.166;2023-02-01T02:35:59;2.90;;;1.40;;
6495;SDS011;3281;47.658;9.166;2023-02-01T02:38:29;1.87;;;1.83;;
6495;SDS011;3281;47.658;9.166;2023-02-01T02:41:01;0.83;;;0.83;;
6495;SDS011;3281;47.658;9.166;2023-02-01T02:43:35;0.50;;;0.50;;
6495;SDS011;3281;47.658;9.166;2023-02-01T02:46:39;0.20;;;0.20;;
6495;SDS011;3281;47.658;9.166;2023-02-01T02:49:29;0.57;;;0.57;;
6495;SDS011;3281;47.658;9.166;2023-02-01T02:52:02;3.03;;;2.93;;
6495;SDS011;3281;47.658;9.166;2023-02-01T02:55:04;6.00;;;5.80;;
6495;SDS011;3281;47.658;9.166;2023-02-01T02:57:34;1.80;;;1.80;;
6495;SDS011;3281;47.658;9.166;2023-02-01T03:00:21;0.90;;;0.83;;
6495;SDS011;3281;47.658;9.166;2023-02-01T03:03:08;0.40;;;0.40;;
6495;SDS011;3281;47.658;9.166;2023-02-01T03:05:54;1.07;;;1.07;;
6495;SDS011;3281;47.658;9.166;2023-02-01T03:08:22;2.40;;;2.30;;
6495;SDS011;3281;47.658;9.166;2023-02-01T03:10:53;3.00;;;1.90;;
6495;SDS011;3281;47.658;9.166;2023-02-01T03:13:26;4.57;;;4.37;;
6495;SDS011;3281;47.658;9.166;2023-02-01T03:15:57;1.73;;;1.73;;
6495;SDS011;3281;47.658;9.166;2023-02-01T03:18:30;2.87;;;2.73;;
6495;SDS011;3281;47.658;9.166;2023-02-01T03:21:04;1.57;;;1.57;;
6495;SDS011;3281;47.658;9.166;2023-02-01T03:23:34;1.67;;;1.67;;
6495;SDS011;3281;47.658;9.166;2023-02-01T03:26:03;1.43;;;1.33;;
6495;SDS011;3281;47.658;9.166;2023-02-01T03:28:33;3.87;;;3.00;;
6495;SDS011;3281;47.658;9.166;2023-02-01T03:31:02;2.77;;;2.67;;
6495;SDS011;3281;47.658;9.166;2023-02-01T03:33:29;2.80;;;2.70;;
6495;SDS011;3281;47.658;9.166;2023-02-01T03:36:00;5.47;;;5.07;;
6495;SDS011;3281;47.658;9.166;2023-02-01T03:38:37;0.20;;;0.20;;
6495;SDS011;3281;47.658;9.166;2023-02-01T03:41:08;2.40;;;2.30;;
6495;SDS011;3281;47.658;9.166;2023-02-01T03:43:40;1.30;;;1.27;;
6495;SDS011;3281;47.658;9.166;2023-02-01T03:46:12;2.07;;;1.97;;
6495;SDS011;3281;47.658;9.166;2023-02-01T03:48:44;1.37;;;1.37;;
6495;SDS011;3281;47.658;9.166;2023-02-01T03:51:13;1.63;;;1.60;;
6495;SDS011;3281;47.658;9.166;2023-02-01T03:53:41;1.60;;;1.60;;
6495;SDS011;3281;47.658;9.166;2023-02-01T03:56:11;1.67;;;1.57;;
6495;SDS011;3281;47.658;9.166;2023-02-01T03:58:38;2.23;;;2.17;;
6495;SDS011;3281;47.658;9.166;2023-02-01T04:01:05;1.97;;;1.90;;
6495;SDS011;3281;47.658;9.166;2023-02-01T04:03:32;5.50;;;2.20;;
6495;SDS011;3281;47.658;9.166;2023-02-01T04:05:58;1.70;;;1.63;;
6495;SDS011;3281;47.658;9.166;2023-02-01T04:08:26;1.10;;;1.10;;
6495;SDS011;3281;47.658;9.166;2023-02-01T04:10:53;2.80;;;2.60;;
6495;SDS011;3281;47.658;9.166;2023-02-01T04:13:20;1.93;;;1.83;;
6495;SDS011;3281;47.658;9.166;2023-02-01T04:15:46;1.97;;;1.80;;
6495;SDS011;3281;47.658;9.166;2023-02-01T04:18:15;1.40;;;1.40;;
6495;SDS011;3281;47.658;9.166;2023-02-01T04:20:42;1.10;;;1.10;;
6495;SDS011;3281;47.658;9.166;2023-02-01T04:23:10;2.90;;;2.73;;
6495;SDS011;3281;47.658;9.166;2023-02-01T04:25:38;0.20;;;0.20;;
6495;SDS011;3281;47.658;9.166;2023-02-01T04:28:04;0.20;;;0.20;;
6495;SDS011;3281;47.658;9.166;2023-02-01T04:30:31;0.20;;;0.20;;
6495;SDS011;3281;47.658;9.166;2023-02-01T04:32:58;0.30;;;0.30;;
6495;SDS011;3281;47.658;9.166;2023-02-01T04:35:25;0.20;;;0.20;;
6495;SDS011;3281;47.658;9.166;2023-02-01T04:37:51;0.23;;;0.23;;
6495;SDS011;3281;47.658;9.166;2023-02-01T04:40:18;0.30;;;0.30;;
6495;SDS011;3281;47.658;9.166;2023-02-01T04:42:46;0.20;;;0.20;;
6495;SDS011;3281;47.658;9.166;2023-02-01T04:45:13;0.20;;;0.20;;
6495;SDS011;3281;47.658;9.166;2023-02-01T04:47:39;0.30;;;0.30;;
6495;SDS011;3281;47.658;9.166;2023-02-01T04:50:06;0.30;;;0.30;;
6495;SDS011;3281;47.658;9.166;2023-02-01T04:52:35;0.30;;;0.30;;
6495;SDS011;3281;47.658;9.166;2023-02-01T04:55:02;0.20;;;0.20;;
6495;SDS011;3281;47.658;9.166;2023-02-01T04:57:29;0.20;;;0.20;;
6495;SDS011;3281;47.658;9.166;2023-02-01T04:59:57;0.30;;;0.30;;
6495;SDS011;3281;47.658;9.166;2023-02-01T05:02:24;0.20;;;0.20;;
6495;SDS011;3281;47.658;9.166;2023-02-01T05:04:51;0.20;;;0.20;;
6495;SDS011;3281;47.658;9.166;2023-02-01T05:07:19;0.20;;;0.20;;
6495;SDS011;3281;47.658;9.166;2023-02-01T05:09:45;0.20;;;0.20;;
6495;SDS011;3281;47.658;9.166;2023-02-01T05:12:12;0.20;;;0.20;;
6495;SDS011;3281;47.658;9.166;2023-02-01T05:14:58;0.20;;;0.20;;
6495;SDS011;3281;47.658;9.166;2023-02-01T05:17:24;0.30;;;0.30;;
6495;SDS011;3281;47.658;9.166;2023-02-01T05:19:51;0.27;;;0.27;;
6495;SDS011;3281;47.658;9.166;2023-02-01T05:22:18;0.20;;;0.20;;
6495;SDS011;3281;47.658;9.166;2023-02-01T05:24:44;0.20;;;0.20;;
6495;SDS011;3281;47.658;9.166;2023-02-01T05:27:11;0.30;;;0.30;;
6495;SDS011;3281;47.658;9.166;2023-02-01T05:29:38;0.20;;;0.20;;
6495;SDS011;3281;47.658;9.166;2023-02-01T05:32:06;0.27;;;0.27;;
6495;SDS011;3281;47.658;9.166;2023-02-01T05:34:35;0.20;;;0.20;;
6495;SDS011;3281;47.658;9.166;2023-02-01T05:37:02;0.20;;;0.20;;
6495;SDS011;3281;47.658;9.166;2023-02-01T05:39:28;0.27;;;0.27;;
6495;SDS011;3281;47.658;9.166;2023-02-01T05:41:55;0.20;;;0.20;;
6495;SDS011;3281;47.658;9.166;2023-02-01T05:44:22;0.20;;;0.20;;
6495;SDS011;3281;47.658;9.166;2023-02-01T05:46:49;0.20;;;0.20;;
6495;SDS011;3281;47.658;9.166;2023-02-01T05:49:18;0.20;;;0.20;;
6495;SDS011;3281;47.658;9.166;2023-02-01T05:51:45;0.20;;;0.20;;
6495;SDS011;3281;47.658;9.166;2023-02-01T05:54:12;0.20;;;0.20;;
6495;SDS011;3281;47.658;9.166;2023-02-01T05:56:38;0.10;;;0.10;;
6495;SDS011;3281;47.658;9.166;2023-02-01T05:59:06;0.20;;;0.20;;
6495;SDS011;3281;47.658;9.166;2023-02-01T06:01:33;0.27;;;0.27;;
6495;SDS011;3281;47.658;9.166;2023-02-01T06:04:00;0.20;;;0.20;;
6495;SDS011;3281;47.658;9.166;2023-02-01T06:06:28;0.30;;;0.30;;
6495;SDS011;3281;47.658;9.166;2023-02-01T06:08:54;0.23;;;0.23;;
6495;SDS011;3281;47.658;9.166;2023-02-01T06:11:21;0.20;;;0.20;;
6495;SDS011;3281;47.658;9.166;2023-02-01T06:13:48;0.23;;;0.23;;
6495;SDS011;3281;47.658;9.166;2023-02-01T06:16:14;0.30;;;0.30;;
6495;SDS011;3281;47.658;9.166;2023-02-01T06:18:41;0.20;;;0.20;;
6495;SDS011;3281;47.658;9.166;2023-02-01T06:21:08;0.20;;;0.20;;
6495;SDS011;3281;47.658;9.166;2023-02-01T06:23:36;0.17;;;0.17;;
6495;SDS011;3281;47.658;9.166;2023-02-01T06:26:04;0.20;;;0.20;;
6495;SDS011;3281;47.658;9.166;2023-02-01T06:28:32;0.20;;;0.20;;
6495;SDS011;3281;47.658;9.166;2023-02-01T06:31:02;0.20;;;0.20;;
6495;SDS011;3281;47.658;9.166;2023-02-01T06:33:31;0.30;;;0.30;;
6495;SDS011;3281;47.658;9.166;2023-02-01T06:35:58;0.10;;;0.10;;
6495;SDS011;3281;47.658;9.166;2023-02-01T06:38:26;0.23;;;0.23;;
6495;SDS011;3281;47.658;9.166;2023-02-01T06:40:54;0.20;;;0.20;;
6495;SDS011;3281;47.658;9.166;2023-02-01T06:43:22;0.20;;;0.20;;
6495;SDS011;3281;47.658;9.166;2023-02-01T06:45:50;0.20;;;0.20;;
6495;SDS011;3281;47.658;9.166;2023-02-01T06:48:17;0.20;;;0.20;;
6495;SDS011;3281;47.658;9.166;2023-02-01T06:50:44;0.20;;;0.20;;
6495;SDS011;3281;47.658;9.166;2023-02-01T06:53:11;0.30;;;0.30;;
6495;SDS011;3281;47.658;9.166;2023-02-01T06:55:38;0.30;;;0.30;;
6495;SDS011;3281;47.658;9.166;2023-02-01T06:58:06;0.30;;;0.30;;
6495;SDS011;3281;47.658;9.166;2023-02-01T07:00:32;0.30;;;0.30;;
6495;SDS011;3281;47.658;9.166;2023-02-01T07:02:59;0.23;;;0.23;;
6495;SDS011;3281;47.658;9.166;2023-02-01T07:05:27;0.20;;;0.20;;
6495;SDS011;3281;47.658;9.166;2023-02-01T07:07:53;0.20;;;0.20;;
6495;SDS011;3281;47.658;9.166;2023-02-01T07:10:20;0.30;;;0.30;;
6495;SDS011;3281;47.658;9.166;2023-02-01T07:12:47;0.20;;;0.20;;
6495;SDS011;3281;47.658;9.166;2023-02-01T07:15:15;0.23;;;0.23;;
6495;SDS011;3281;47.658;9.166;2023-02-01T07:17:42;0.30;;;0.30;;
6495;SDS011;3281;47.658;9.166;2023-02-01T07:20:10;0.20;;;0.20;;
6495;SDS011;3281;47.658;9.166;2023-02-01T07:22:37;0.20;;;0.20;;
6495;SDS011;3281;47.658;9.166;2023-02-01T07:25:04;0.30;;;0.30;;
6495;SDS011;3281;47.658;9.166;2023-02-01T07:27:33;0.30;;;0.30;;
6495;SDS011;3281;47.658;9.166;2023-02-01T07:30:00;0.20;;;0.20;;
6495;SDS011;3281;47.658;9.166;2023-02-01T07:32:28;0.20;;;0.20;;
6495;SDS011;3281;47.658;9.166;2023-02-01T07:34:55;0.20;;;0.20;;
6495;SDS011;3281;47.658;9.166;2023-02-01T07:37:22;0.20;;;0.20;;
6495;SDS011;3281;47.658;9.166;2023-02-01T07:39:49;0.20;;;0.20;;
6495;SDS011;3281;47.658;9.166;2023-02-01T07:42:16;0.30;;;0.30;;
6495;SDS011;3281;47.658;9.166;2023-02-01T07:44:43;0.20;;;0.20;;
6495;SDS011;3281;47.658;9.166;2023-02-01T07:47:10;0.27;;;0.27;;
6495;SDS011;3281;47.658;9.166;2023-02-01T07:49:38;0.20;;;0.20;;
6495;SDS011;3281;47.658;9.166;2023-02-01T07:52:04;0.20;;;0.20;;
6495;SDS011;3281;47.658;9.166;2023-02-01T07:54:31;0.20;;;0.20;;
6495;SDS011;3281;47.658;9.166;2023-02-01T07:56:58;0.20;;;0.20;;
6495;SDS011;3281;47.658;9.166;2023-02-01T07:59:24;0.20;;;0.20;;
6495;SDS011;3281;47.658;9.166;2023-02-01T08:01:51;0.20;;;0.20;;
6495;SDS011;3281;47.658;9.166;2023-02-01T08:04:17;0.20;;;0.20;;
6495;SDS011;3281;47.658;9.166;2023-02-01T08:06:45;0.20;;;0.20;;
6495;SDS011;3281;47.658;9.166;2023-02-01T08:09:12;0.30;;;0.30;;
6495;SDS011;3281;47.658;9.166;2023-02-01T08:11:38;0.20;;;0.20;;
6495;SDS011;3281;47.658;9.166;2023-02-01T08:14:05;0.20;;;0.20;;
6495;SDS011;3281;47.658;9.166;2023-02-01T08:16:32;0.30;;;0.30;;
6495;SDS011;3281;47.658;9.166;2023-02-01T08:19:02;0.20;;;0.20;;
6495;SDS011;3281;47.658;9.166;2023-02-01T08:21:28;0.20;;;0.20;;
6495;SDS011;3281;47.658;9.166;2023-02-01T08:24:02;0.20;;;0.20;;
6495;SDS011;3281;47.658;9.166;2023-02-01T08:26:30;0.20;;;0.20;;
6495;SDS011;3281;47.658;9.166;2023-02-01T08:28:58;0.20;;;0.20;;
6495;SDS011;3281;47.658;9.166;2023-02-01T08:31:28;0.20;;;0.20;;
6495;SDS011;3281;47.658;9.166;2023-02-01T08:33:56;0.10;;;0.10;;
6495;SDS011;3281;47.658;9.166;2023-02-01T08:36:24;0.30;;;0.30;;
6495;SDS011;3281;47.658;9.166;2023-02-01T08:38:52;0.20;;;0.20;;
6495;SDS011;3281;47.658;9.166;2023-02-01T08:41:21;0.20;;;0.20;;
6495;SDS011;3281;47.658;9.166;2023-02-01T08:43:49;0.20;;;0.20;;
6495;SDS011;3281;47.658;9.166;2023-02-01T08:46:16;0.20;;;0.20;;
6495;SDS011;3281;47.658;9.166;2023-02-01T08:48:43;0.20;;;0.20;;
6495;SDS011;3281;47.658;9.166;2023-02-01T08:51:12;0.20;;;0.20;;
6495;SDS011;3281;47.658;9.166;2023-02-01T08:53:40;0.20;;;0.20;;
6495;SDS011;3281;47.658;9.166;2023-02-01T08:56:08;0.13;;;0.13;;
6495;SDS011;3281;47.658;9.166;2023-02-01T08:58:37;0.20;;;0.20;;
6495;SDS011;3281;47.658;9.166;2023-02-01T09:01:04;0.20;;;0.20;;
6495;SDS011;3281;47.658;9.166;2023-02-01T09:03:31;0.20;;;0.20;;
6495;SDS011;3281;47.658;9.166;2023-02-01T09:06:02;0.20;;;0.20;;
6495;SDS011;3281;47.658;9.166;2023-02-01T09:08:29;0.20;;;0.20;;
6495;SDS011;3281;47.658;9.166;2023-02-01T09:11:00;0.30;;;0.30;;
6495;SDS011;3281;47.658;9.166;2023-02-01T09:13:27;0.20;;;0.20;;
6495;SDS011;3281;47.658;9.166;2023-02-01T09:15:55;0.20;;;0.20;;
6495;SDS011;3281;47.658;9.166;2023-02-01T09:18:23;0.23;;;0.23;;
6495;SDS011;3281;47.658;9.166;2023-02-01T09:20:50;0.20;;;0.20;;
6495;SDS011;3281;47.658;9.166;2023-02-01T09:23:17;0.27;;;0.27;;
6495;SDS011;3281;47.658;9.166;2023-02-01T09:25:45;0.20;;;0.20;;
6495;SDS011;3281;47.658;9.166;2023-02-01T09:28:14;0.30;;;0.30;;
6495;SDS011;3281;47.658;9.166;2023-02-01T09:30:41;0.20;;;0.20;;
6495;SDS011;3281;47.658;9.166;2023-02-01T09:33:10;0.20;;;0.20;;
6495;SDS011;3281;47.658;9.166;2023-02-01T09:35:37;0.20;;;0.20;;
6495;SDS011;3281;47.658;9.166;2023-02-01T09:38:04;0.20;;;0.20;;
6495;SDS011;3281;47.658;9.166;2023-02-01T09:40:30;0.20;;;0.20;;
6495;SDS011;3281;47.658;9.166;2023-02-01T09:43:07;0.20;;;0.20;;
6495;SDS011;3281;47.658;9.166;2023-02-01T09:45:41;0.10;;;0.10;;
6495;SDS011;3281;47.658;9.166;2023-02-01T09:48:15;0.30;;;0.30;;
6495;SDS011;3281;47.658;9.166;2023-02-01T09:50:45;0.20;;;0.20;;
6495;SDS011;3281;47.658;9.166;2023-02-01T09:53:17;0.20;;;0.20;;
6495;SDS011;3281;47.658;9.166;2023-02-01T09:55:48;0.30;;;0.30;;
6495;SDS011;3281;47.658;9.166;2023-02-01T09:58:17;0.20;;;0.20;;
6495;SDS011;3281;47.658;9.166;2023-02-01T10:00:50;0.20;;;0.20;;
6495;SDS011;3281;47.658;9.166;2023-02-01T10:03:20;0.20;;;0.20;;
6495;SDS011;3281;47.658;9.166;2023-02-01T10:06:05;0.20;;;0.20;;
6495;SDS011;3281;47.658;9.166;2023-02-01T10:08:50;0.20;;;0.20;;
6495;SDS011;3281;47.658;9.166;2023-02-01T10:11:32;0.20;;;0.20;;
6495;SDS011;3281;47.658;9.166;2023-02-01T10:14:15;0.30;;;0.30;;
6495;SDS011;3281;47.658;9.166;2023-02-01T10:17:00;0.30;;;0.30;;
6495;SDS011;3281;47.658;9.166;2023-02-01T10:19:38;0.20;;;0.20;;
6495;SDS011;3281;47.658;9.166;2023-02-01T10:22:11;0.20;;;0.20;;
6495;SDS011;3281;47.658;9.166;2023-02-01T10:24:47;0.20;;;0.20;;
6495;SDS011;3281;47.658;9.166;2023-02-01T10:27:22;0.20;;;0.20;;
6495;SDS011;3281;47.658;9.166;2023-02-01T10:29:54;0.20;;;0.20;;
6495;SDS011;3281;47.658;9.166;2023-02-01T10:32:24;0.10;;;0.10;;
6495;SDS011;3281;47.658;9.166;2023-02-01T10:34:57;0.20;;;0.20;;
6495;SDS011;3281;47.658;9.166;2023-02-01T10:37:27;0.20;;;0.20;;
6495;SDS011;3281;47.658;9.166;2023-02-01T10:39:56;0.20;;;0.20;;
6495;SDS011;3281;47.658;9.166;2023-02-01T10:42:26;0.20;;;0.20;;
6495;SDS011;3281;47.658;9.166;2023-02-01T10:44:55;0.20;;;0.20;;
6495;SDS011;3281;47.658;9.166;2023-02-01T10:47:24;0.10;;;0.10;;
6495;SDS011;3281;47.658;9.166;2023-02-01T10:49:52;0.20;;;0.20;;
6495;SDS011;3281;47.658;9.166;2023-02-01T10:52:31;0.10;;;0.10;;
6495;SDS011;3281;47.658;9.166;2023-02-01T10:57:57;0.10;;;0.10;;
6495;SDS011;3281;47.658;9.166;2023-02-01T11:00:25;0.10;;;0.10;;
6495;SDS011;3281;47.658;9.166;2023-02-01T11:02:52;0.10;;;0.10;;
6495;SDS011;3281;47.658;9.166;2023-02-01T11:05:22;0.10;;;0.10;;
6495;SDS011;3281;47.658;9.166;2023-02-01T11:07:52;0.10;;;0.10;;
6495;SDS011;3281;47.658;9.166;2023-02-01T11:10:36;0.10;;;0.10;;
6495;SDS011;3281;47.658;9.166;2023-02-01T11:13:05;0.10;;;0.10;;
6495;SDS011;3281;47.658;9.166;2023-02-01T11:15:42;0.10;;;0.10;;
6495;SDS011;3281;47.658;9.166;2023-02-01T11:18:14;0.10;;;0.10;;
6495;SDS011;3281;47.658;9.166;2023-02-01T11:20:45;0.10;;;0.10;;
6495;SDS011;3281;47.658;9.166;2023-02-01T11:23:14;0.10;;;0.10;;
6495;SDS011;3281;47.658;9.166;2023-02-01T11:25:47;0.10;;;0.10;;
6495;SDS011;3281;47.658;9.166;2023-02-01T11:28:15;0.10;;;0.10;;
6495;SDS011;3281;47.658;9.166;2023-02-01T11:30:43;0.10;;;0.10;;
6495;SDS011;3281;47.658;9.166;2023-02-01T11:33:13;0.10;;;0.10;;
6495;SDS011;3281;47.658;9.166;2023-02-01T11:35:44;0.10;;;0.10;;
6495;SDS011;3281;47.658;9.166;2023-02-01T11:38:18;0.10;;;0.10;;
6495;SDS011;3281;47.658;9.166;2023-02-01T11:40:48;0.10;;;0.10;;
6495;SDS011;3281;47.658;9.166;2023-02-01T11:43:17;0.10;;;0.10;;
6495;SDS011;3281;47.658;9.166;2023-02-01T11:45:53;0.20;;;0.20;;
6495;SDS011;3281;47.658;9.166;2023-02-01T11:48:21;0.10;;;0.10;;
6495;SDS011;3281;47.658;9.166;2023-02-01T11:50:53;0.10;;;0.10;;
6495;SDS011;3281;47.658;9.166;2023-02-01T11:53:41;0.10;;;0.10;;
6495;SDS011;3281;47.658;9.166;2023-02-01T11:56:24;0.10;;;0.10;;
6495;SDS011;3281;47.658;9.166;2023-02-01T11:59:01;0.20;;;0.20;;
6495;SDS011;3281;47.658;9.166;2023-02-01T12:01:40;0.10;;;0.10;;
6495;SDS011;3281;47.658;9.166;2023-02-01T12:07:18;0.10;;;0.10;;
6495;SDS011;3281;47.658;9.166;2023-02-01T12:09:53;0.20;;;0.20;;
6495;SDS011;3281;47.658;9.166;2023-02-01T12:12:30;0.10;;;0.10;;
6495;SDS011;3281;47.658;9.166;2023-02-01T12:15:05;0.20;;;0.20;;
6495;SDS011;3281;47.658;9.166;2023-02-01T12:17:53;0.20;;;0.20;;
6495;SDS011;3281;47.658;9.166;2023-02-01T12:20:42;0.10;;;0.10;;
6495;SDS011;3281;47.658;9.166;2023-02-01T12:23:37;0.20;;;0.20;;
6495;SDS011;3281;47.658;9.166;2023-02-01T12:26:33;0.10;;;0.10;;
6495;SDS011;3281;47.658;9.166;2023-02-01T12:29:16;0.20;;;0.20;;
6495;SDS011;3281;47.658;9.166;2023-02-01T12:31:59;0.10;;;0.10;;
6495;SDS011;3281;47.658;9.166;2023-02-01T12:34:38;0.10;;;0.10;;
6495;SDS011;3281;47.658;9.166;2023-02-01T12:37:19;0.10;;;0.10;;
6495;SDS011;3281;47.658;9.166;2023-02-01T12:39:56;0.20;;;0.20;;
6495;SDS011;3281;47.658;9.166;2023-02-01T12:42:31;0.10;;;0.10;;
6495;SDS011;3281;47.658;9.166;2023-02-01T12:45:02;0.10;;;0.10;;
6495;SDS011;3281;47.658;9.166;2023-02-01T12:47:39;0.10;;;0.10;;
6495;SDS011;3281;47.658;9.166;2023-02-01T12:50:12;0.10;;;0.10;;
6495;SDS011;3281;47.658;9.166;2023-02-01T12:52:47;0.13;;;0.13;;
6495;SDS011;3281;47.658;9.166;2023-02-01T12:55:17;0.10;;;0.10;;
6495;SDS011;3281;47.658;9.166;2023-02-01T12:57:49;0.10;;;0.10;;
6495;SDS011;3281;47.658;9.166;2023-02-01T13:00:20;0.10;;;0.10;;
6495;SDS011;3281;47.658;9.166;2023-02-01T13:02:52;0.20;;;0.20;;
6495;SDS011;3281;47.658;9.166;2023-02-01T13:05:24;0.20;;;0.20;;
6495;SDS011;3281;47.658;9.166;2023-02-01T13:07:56;0.20;;;0.20;;
6495;SDS011;3281;47.658;9.166;2023-02-01T13:10:29;0.20;;;0.20;;
6495;SDS011;3281;47.658;9.166;2023-02-01T13:13:01;0.13;;;0.13;;
6495;SDS011;3281;47.658;9.166;2023-02-01T13:15:33;0.10;;;0.10;;
6495;SDS011;3281;47.658;9.166;2023-02-01T13:18:04;0.20;;;0.20;;
6495;SDS011;3281;47.658;9.166;2023-02-01T13:20:37;0.10;;;0.10;;
6495;SDS011;3281;47.658;9.166;2023-02-01T13:23:09;0.10;;;0.10;;
6495;SDS011;3281;47.658;9.166;2023-02-01T13:25:45;0.20;;;0.20;;
6495;SDS011;3281;47.658;9.166;2023-02-01T13:28:15;0.20;;;0.20;;
6495;SDS011;3281;47.658;9.166;2023-02-01T13:30:50;0.20;;;0.20;;
6495;SDS011;3281;47.658;9.166;2023-02-01T13:33:35;0.20;;;0.20;;
6495;SDS011;3281;47.658;9.166;2023-02-01T13:36:30;0.20;;;0.20;;
6495;SDS011;3281;47.658;9.166;2023-02-01T13:39:14;0.17;;;0.17;;
6495;SDS011;3281;47.658;9.166;2023-02-01T13:41:58;0.20;;;0.20;;
6495;SDS011;3281;47.658;9.166;2023-02-01T13:44:29;0.20;;;0.20;;
6495;SDS011;3281;47.658;9.166;2023-02-01T13:47:00;0.20;;;0.20;;
6495;SDS011;3281;47.658;9.166;2023-02-01T13:49:29;0.10;;;0.10;;
6495;SDS011;3281;47.658;9.166;2023-02-01T13:52:02;0.20;;;0.20;;
6495;SDS011;3281;47.658;9.166;2023-02-01T13:54:30;0.10;;;0.10;;
6495;SDS011;3281;47.658;9.166;2023-02-01T13:57:00;0.10;;;0.10;;
6495;SDS011;3281;47.658;9.166;2023-02-01T13:59:36;0.10;;;0.10;;
6495;SDS011;3281;47.658;9.166;2023-02-01T14:02:45;0.10;;;0.10;;
6495;SDS011;3281;47.658;9.166;2023-02-01T14:08:20;0.20;;;0.20;;
6495;SDS011;3281;47.658;9.166;2023-02-01T14:10:50;0.20;;;0.20;;
6495;SDS011;3281;47.658;9.166;2023-02-01T14:13:25;0.10;;;0.10;;
6495;SDS011;3281;47.658;9.166;2023-02-01T14:18:57;0.20;;;0.20;;
6495;SDS011;3281;47.658;9.166;2023-02-01T14:21:26;0.20;;;0.20;;
6495;SDS011;3281;47.658;9.166;2023-02-01T14:23:56;0.10;;;0.10;;
6495;SDS011;3281;47.658;9.166;2023-02-01T14:26:25;0.17;;;0.17;;
6495;SDS011;3281;47.658;9.166;2023-02-01T14:29:21;0.10;;;0.10;;
6495;SDS011;3281;47.658;9.166;2023-02-01T14:32:01;0.20;;;0.20;;
6495;SDS011;3281;47.658;9.166;2023-02-01T14:34:35;0.20;;;0.20;;
6495;SDS011;3281;47.658;9.166;2023-02-01T14:37:08;0.10;;;0.10;;
6495;SDS011;3281;47.658;9.166;2023-02-01T14:39:40;0.20;;;0.20;;
6495;SDS011;3281;47.658;9.166;2023-02-01T14:42:21;0.20;;;0.20;;
6495;SDS011;3281;47.658;9.166;2023-02-01T14:44:52;0.20;;;0.20;;
6495;SDS011;3281;47.658;9.166;2023-02-01T14:47:30;0.20;;;0.20;;
6495;SDS011;3281;47.658;9.166;2023-02-01T14:50:11;0.20;;;0.20;;
6495;SDS011;3281;47.658;9.166;2023-02-01T14:53:04;0.20;;;0.20;;
6495;SDS011;3281;47.658;9.166;2023-02-01T14:55:47;0.20;;;0.20;;
6495;SDS011;3281;47.658;9.166;2023-02-01T14:58:21;0.30;;;0.30;;
6495;SDS011;3281;47.658;9.166;2023-02-01T15:00:59;0.20;;;0.20;;
6495;SDS011;3281;47.658;9.166;2023-02-01T15:03:33;0.20;;;0.20;;
6495;SDS011;3281;47.658;9.166;2023-02-01T15:06:13;0.20;;;0.20;;
6495;SDS011;3281;47.658;9.166;2023-02-01T15:08:55;0.20;;;0.20;;
6495;SDS011;3281;47.658;9.166;2023-02-01T15:11:25;0.20;;;0.20;;
6495;SDS011;3281;47.658;9.166;2023-02-01T15:13:52;0.20;;;0.20;;
6495;SDS011;3281;47.658;9.166;2023-02-01T15:16:22;0.10;;;0.10;;
6495;SDS011;3281;47.658;9.166;2023-02-01T15:18:50;0.20;;;0.20;;
6495;SDS011;3281;47.658;9.166;2023-02-01T15:21:41;0.10;;;0.10;;
6495;SDS011;3281;47.658;9.166;2023-02-01T15:24:10;0.20;;;0.20;;
6495;SDS011;3281;47.658;9.166;2023-02-01T15:26:37;0.20;;;0.20;;
6495;SDS011;3281;47.658;9.166;2023-02-01T15:29:04;0.20;;;0.20;;
6495;SDS011;3281;47.658;9.166;2023-02-01T15:31:36;0.20;;;0.20;;
6495;SDS011;3281;47.658;9.166;2023-02-01T15:34:03;0.20;;;0.20;;
6495;SDS011;3281;47.658;9.166;2023-02-01T15:36:30;0.20;;;0.20;;
6495;SDS011;3281;47.658;9.166;2023-02-01T15:39:12;0.20;;;0.20;;
6495;SDS011;3281;47.658;9.166;2023-02-01T15:41:43;0.20;;;0.20;;
6495;SDS011;3281;47.658;9.166;2023-02-01T15:44:14;0.20;;;0.20;;
6495;SDS011;3281;47.658;9.166;2023-02-01T15:46:47;0.20;;;0.20;;
6495;SDS011;3281;47.658;9.166;2023-02-01T15:49:17;0.20;;;0.20;;
6495;SDS011;3281;47.658;9.166;2023-02-01T15:51:46;0.30;;;0.30;;
6495;SDS011;3281;47.658;9.166;2023-02-01T15:54:15;0.30;;;0.30;;
6495;SDS011;3281;47.658;9.166;2023-02-01T15:56:44;0.20;;;0.20;;